Time,TemperatureF,DewpointF,PressureIn,WindDirection,WindDirectionDegrees,WindSpeedMPH,WindSpeedGustMPH,Humidity,HourlyPrecipIn,Conditions,Clouds,dailyrainin,SoftwareType,DateUTC
2013-08-19 00:11:00,62.6,57.0,30.10,ESE,112,0.0,-999.0,82,-99.99,,,0.00,Acu-Link.com,2013-08-19 04:11:00,
2013-08-19 00:26:00,62.6,57.4,30.10,SW,225,0.0,-999.0,83,-99.99,,,0.00,Acu-Link.com,2013-08-19 04:26:00,
2013-08-19 00:41:00,62.4,57.2,30.10,WSW,247,0.0,-999.0,83,-99.99,,,0.00,Acu-Link.com,2013-08-19 04:41:00,
2013-08-19 00:56:00,62.1,56.8,30.09,WSW,247,0.0,-999.0,83,-99.99,,,0.00,Acu-Link.com,2013-08-19 04:56:00,
2013-08-19 01:11:00,62.1,57.2,30.10,WSW,247,0.0,-999.0,84,-99.99,,,0.00,Acu-Link.com,2013-08-19 05:11:00,
2013-08-19 01:27:00,62.2,57.7,30.09,SW,225,0.0,-999.0,85,-99.99,,,0.00,Acu-Link.com,2013-08-19 05:27:00,
2013-08-19 01:42:00,62.2,57.7,30.09,North,0,0.0,-999.0,85,-99.99,,,0.00,Acu-Link.com,2013-08-19 05:42:00,
2013-08-19 01:57:00,62.6,57.7,30.09,North,0,0.0,-999.0,84,-99.99,,,0.00,Acu-Link.com,2013-08-19 05:57:00,
2013-08-19 02:12:00,62.6,57.7,30.09,North,0,0.0,-999.0,84,-99.99,,,0.00,Acu-Link.com,2013-08-19 06:12:00,
2013-08-19 02:28:00,62.4,57.8,30.08,North,0,0.0,-999.0,85,-99.99,,,0.00,Acu-Link.com,2013-08-19 06:28:00,
2013-08-19 02:43:00,62.1,57.8,30.08,North,0,0.0,-999.0,86,-99.99,,,0.00,Acu-Link.com,2013-08-19 06:43:00,
2013-08-19 02:58:00,61.9,57.6,30.07,North,0,0.0,-999.0,86,-99.99,,,0.00,Acu-Link.com,2013-08-19 06:58:00,
2013-08-19 03:13:00,61.7,57.8,30.06,North,0,0.0,-999.0,87,-99.99,,,0.00,Acu-Link.com,2013-08-19 07:13:00,
2013-08-19 03:28:00,61.2,57.3,30.06,North,0,0.0,-999.0,87,-99.99,,,0.00,Acu-Link.com,2013-08-19 07:28:00,
2013-08-19 03:44:00,60.6,57.0,30.06,North,0,0.0,-999.0,88,-99.99,,,0.00,Acu-Link.com,2013-08-19 07:44:00,
2013-08-19 03:59:00,60.3,57.0,30.06,North,0,0.0,-999.0,89,-99.99,,,0.00,Acu-Link.com,2013-08-19 07:59:00,
2013-08-19 04:14:00,60.1,56.8,30.05,North,0,0.0,-999.0,89,-99.99,,,0.00,Acu-Link.com,2013-08-19 08:14:00,
2013-08-19 04:29:00,59.9,56.6,30.06,North,0,0.0,-999.0,89,-99.99,,,0.00,Acu-Link.com,2013-08-19 08:29:00,
2013-08-19 04:44:00,59.2,56.6,30.05,North,0,0.0,-999.0,91,-99.99,,,0.00,Acu-Link.com,2013-08-19 08:44:00,
2013-08-19 05:00:00,59.0,56.4,30.05,North,0,0.0,-999.0,91,-99.99,,,0.00,Acu-Link.com,2013-08-19 09:00:00,
2013-08-19 05:15:00,58.8,56.5,30.05,North,0,0.0,-999.0,92,-99.99,,,0.00,Acu-Link.com,2013-08-19 09:15:00,
2013-08-19 05:30:00,58.6,56.3,30.04,North,0,0.0,-999.0,92,-99.99,,,0.00,Acu-Link.com,2013-08-19 09:30:00,
2013-08-19 05:45:00,58.5,56.1,30.04,North,0,0.0,-999.0,92,-99.99,,,0.00,Acu-Link.com,2013-08-19 09:45:00,
2013-08-19 06:00:00,58.5,56.1,30.05,North,0,0.0,-999.0,92,-99.99,,,0.00,Acu-Link.com,2013-08-19 10:00:00,
2013-08-19 06:15:00,58.5,56.1,30.05,North,0,0.0,-999.0,92,-99.99,,,0.00,Acu-Link.com,2013-08-19 10:15:00,
2013-08-19 06:31:00,58.5,56.1,30.04,North,0,0.0,-999.0,92,-99.99,,,0.00,Acu-Link.com,2013-08-19 10:31:00,
2013-08-19 06:46:00,58.5,56.4,30.05,North,0,0.0,-999.0,93,-99.99,,,0.00,Acu-Link.com,2013-08-19 10:46:00,
2013-08-19 07:01:00,58.8,56.8,30.05,North,0,0.0,-999.0,93,-99.99,,,0.00,Acu-Link.com,2013-08-19 11:01:00,
2013-08-19 07:16:00,59.2,56.9,30.05,North,0,0.0,-999.0,92,-99.99,,,0.00,Acu-Link.com,2013-08-19 11:16:00,
2013-08-19 07:31:00,60.1,57.4,30.05,North,0,0.0,-999.0,91,-99.99,,,0.00,Acu-Link.com,2013-08-19 11:31:00,
2013-08-19 07:47:00,60.8,57.5,30.06,North,0,0.0,-999.0,89,-99.99,,,0.00,Acu-Link.com,2013-08-19 11:47:00,
2013-08-19 08:02:00,61.2,57.9,30.06,SSW,202,0.0,-999.0,89,-99.99,,,0.00,Acu-Link.com,2013-08-19 12:02:00,
2013-08-19 08:17:00,61.9,58.6,30.05,SSW,202,0.0,-999.0,89,-99.99,,,0.00,Acu-Link.com,2013-08-19 12:17:00,
2013-08-19 08:32:00,62.4,58.8,30.06,SSW,202,0.0,-999.0,88,-99.99,,,0.00,Acu-Link.com,2013-08-19 12:32:00,
2013-08-19 08:47:00,63.1,59.5,30.06,SSE,157,0.0,-999.0,88,-99.99,,,0.00,Acu-Link.com,2013-08-19 12:47:00,
2013-08-19 09:03:00,64.0,59.4,30.06,South,180,0.0,-999.0,85,-99.99,,,0.00,Acu-Link.com,2013-08-19 13:03:00,
2013-08-19 09:18:00,65.1,59.5,30.05,SSW,202,0.0,-999.0,82,-99.99,,,0.00,Acu-Link.com,2013-08-19 13:18:00,
2013-08-19 09:33:00,66.9,60.2,30.05,SSE,157,0.0,-999.0,79,-99.99,,,0.00,Acu-Link.com,2013-08-19 13:33:00,
2013-08-19 09:48:00,68.4,60.5,30.05,SE,135,1.6,-999.0,76,-99.99,,,0.00,Acu-Link.com,2013-08-19 13:48:00,
2013-08-19 10:03:00,69.6,60.2,30.05,SE,135,2.2,-999.0,72,-99.99,,,0.00,Acu-Link.com,2013-08-19 14:03:00,
2013-08-19 10:19:00,70.3,60.9,30.05,South,180,2.7,-999.0,72,-99.99,,,0.00,Acu-Link.com,2013-08-19 14:19:00,
2013-08-19 10:34:00,71.4,61.9,30.05,SE,135,0.0,-999.0,72,-99.99,,,0.00,Acu-Link.com,2013-08-19 14:34:00,
2013-08-19 10:49:00,72.0,62.0,30.05,WNW,292,0.0,-999.0,71,-99.99,,,0.00,Acu-Link.com,2013-08-19 14:49:00,
2013-08-19 11:04:00,72.7,61.9,30.04,SSW,202,0.0,-999.0,69,-99.99,,,0.00,Acu-Link.com,2013-08-19 15:04:00,
2013-08-19 11:19:00,73.8,63.4,30.04,South,180,0.0,-999.0,70,-99.99,,,0.00,Acu-Link.com,2013-08-19 15:19:00,
2013-08-19 11:35:00,74.3,62.6,30.04,SW,225,2.7,-999.0,67,-99.99,,,0.00,Acu-Link.com,2013-08-19 15:35:00,
2013-08-19 11:50:00,74.8,61.4,30.04,SSW,202,1.1,-999.0,63,-99.99,,,0.00,Acu-Link.com,2013-08-19 15:50:00,
2013-08-19 12:05:00,75.9,62.4,30.04,SE,135,0.0,-999.0,63,-99.99,,,0.00,Acu-Link.com,2013-08-19 16:05:00,
2013-08-19 12:20:00,76.6,63.1,30.03,SSW,202,2.2,-999.0,63,-99.99,,,0.00,Acu-Link.com,2013-08-19 16:20:00,
2013-08-19 12:36:00,77.2,62.2,30.03,SW,225,2.2,-999.0,60,-99.99,,,0.00,Acu-Link.com,2013-08-19 16:36:00,
2013-08-19 12:51:00,78.8,63.2,30.03,ESE,112,1.6,-999.0,59,-99.99,,,0.00,Acu-Link.com,2013-08-19 16:51:00,
2013-08-19 13:06:00,78.8,61.8,30.03,ESE,112,1.1,-999.0,56,-99.99,,,0.00,Acu-Link.com,2013-08-19 17:06:00,
2013-08-19 13:21:00,79.7,62.1,30.03,ESE,112,1.6,-999.0,55,-99.99,,,0.00,Acu-Link.com,2013-08-19 17:21:00,
2013-08-19 19:17:00,72.0,64.0,30.01,SW,225,0.0,-999.0,76,-99.99,,,0.00,Acu-Link.com,2013-08-19 23:17:00,
2013-08-19 19:33:00,71.4,63.4,30.01,South,180,1.6,-999.0,76,-99.99,,,0.00,Acu-Link.com,2013-08-19 23:33:00,
2013-08-19 19:48:00,70.5,61.4,30.02,SSW,202,0.0,-999.0,73,-99.99,,,0.00,Acu-Link.com,2013-08-19 23:48:00,
2013-08-19 20:03:00,69.8,60.7,30.02,SSW,202,0.0,-999.0,73,-99.99,,,0.00,Acu-Link.com,2013-08-20 00:03:00,
2013-08-19 20:18:00,69.1,60.4,30.01,East,90,0.0,-999.0,74,-99.99,,,0.00,Acu-Link.com,2013-08-20 00:18:00,
2013-08-19 20:33:00,68.0,59.8,30.02,North,0,0.0,-999.0,75,-99.99,,,0.00,Acu-Link.com,2013-08-20 00:33:00,
2013-08-19 20:49:00,67.3,59.1,30.02,North,0,0.0,-999.0,75,-99.99,,,0.00,Acu-Link.com,2013-08-20 00:49:00,
2013-08-19 21:04:00,66.6,59.1,30.02,North,0,0.0,-999.0,77,-99.99,,,0.00,Acu-Link.com,2013-08-20 01:04:00,
2013-08-19 21:19:00,65.8,58.8,30.03,North,0,0.0,-999.0,78,-99.99,,,0.00,Acu-Link.com,2013-08-20 01:19:00,
2013-08-19 21:34:00,65.5,58.8,30.03,North,0,0.0,-999.0,79,-99.99,,,0.00,Acu-Link.com,2013-08-20 01:34:00,
2013-08-19 21:49:00,65.5,58.8,30.03,North,0,0.0,-999.0,79,-99.99,,,0.00,Acu-Link.com,2013-08-20 01:49:00,
2013-08-19 22:05:00,65.5,58.8,30.03,North,0,0.0,-999.0,79,-99.99,,,0.00,Acu-Link.com,2013-08-20 02:05:00,
2013-08-19 22:20:00,65.3,58.6,30.03,North,0,0.0,-999.0,79,-99.99,,,0.00,Acu-Link.com,2013-08-20 02:20:00,
2013-08-19 22:35:00,64.8,58.4,30.03,North,0,0.0,-999.0,80,-99.99,,,0.00,Acu-Link.com,2013-08-20 02:35:00,
2013-08-19 22:50:00,64.4,58.8,30.03,North,0,0.0,-999.0,82,-99.99,,,0.00,Acu-Link.com,2013-08-20 02:50:00,
2013-08-19 23:05:00,64.2,58.9,30.03,North,0,0.0,-999.0,83,-99.99,,,0.00,Acu-Link.com,2013-08-20 03:05:00,
2013-08-19 23:21:00,63.3,59.1,30.03,North,0,0.0,-999.0,86,-99.99,,,0.00,Acu-Link.com,2013-08-20 03:21:00,
2013-08-19 23:36:00,63.1,58.6,30.03,North,0,0.0,-999.0,85,-99.99,,,0.00,Acu-Link.com,2013-08-20 03:36:00,
2013-08-19 23:51:00,63.0,59.0,30.03,North,0,0.0,-999.0,87,-99.99,,,0.00,Acu-Link.com,2013-08-20 03:51:00,